Ship Status Report: callsign AMOUK29

sailwx.info

Track history (hours):
 
Tides and Currents Weather Stations Pressure Air Temp Water Temp Dewpoint Dewpoint Depression Visibility Wind Speed Wind Dir Waves Ship Positions

Callsign AMOUK29 (name unknown)

Last reported at 2014-Nov-26 19:00 UTC. Time now 2014-Nov-28 05:42 UTC.
Position N 54°36' W 005°54'.

Barometer 1010.8 mb
Air temperature 7.7 ° C
Dewpoint 6.2 ° C

Date/timePositionNaut miles runAvg speedWind from/ knotsBaromVisibWave heightAir tempDewpointWater temp
2014-Nov-26 19:00N 54°36' W 005°54'0 0.0 1010.8 7.7 6.2
2014-Nov-26 16:00N 54°36' W 005°54'0 0.0 1011.7 9.3 6.0
2014-Nov-26 15:00N 54°36' W 005°54'0 0.0 1012.1 9.5 6.4
2014-Nov-26 14:00N 54°36' W 005°54'0 0.0 1012.8 8.9 6.0
2014-Nov-26 13:00N 54°36' W 005°54'0 0.0 1013.5 8.5 5.6
2014-Nov-26 11:00N 54°36' W 005°54'0 0.0 1015.2 7.2 5.4
2014-Nov-26 10:00N 54°36' W 005°54'0 0.0 1015.4 6.0 4.8
2014-Nov-26 09:00N 54°36' W 005°54'0 0.0 1015.8 5.7 4.4
2014-Nov-26 08:00N 54°36' W 005°54'0 0.0 1016.1 4.6 3.4
2014-Nov-26 03:00N 54°36' W 005°54'0 0.0 1017.2 6.8 4.5
2014-Nov-26 02:00N 54°36' W 005°54'0 0.0 1017.7 7.9 4.3
2014-Nov-26 01:00N 54°36' W 005°54'0 0.0 1018.4 8.3 4.8
2014-Nov-25 23:00N 54°36' W 005°54'0 0.0 1019.8 8.5 5.8
2014-Nov-25 22:00N 54°36' W 005°54'0 0.0 1019.8 8.3 6.4
2014-Nov-25 20:00N 54°36' W 005°54'0 0.0 1020.4 8.6 7.5
2014-Nov-25 16:00N 54°36' W 005°54'7 6.9 1020.7 8.9 7.1
2014-Nov-25 15:00N 54°42' W 005°48'1010.4 1020.9 8.4 6.7
2014-Nov-25 14:00N 54°42' W 005°30'7 6.9 1021.2 9.2 7.1
2014-Nov-25 13:00N 54°36' W 005°24'1212.5 1021.8 9.5 7.5
2014-Nov-25 12:00N 54°24' W 005°18'1312.5 1022.4 9.7 7.6
2014-Nov-25 11:00N 54°12' W 005°24'6 6.0 1023.1 9.8 7.3
2014-Nov-25 10:00N 54°06' W 005°24'4 3.5 1023.5 9.7 7.3
2014-Nov-25 09:00N 54°06' W 005°30'0 0.0 1023.9 9.4 7.1
2014-Nov-25 08:00N 54°06' W 005°30'0 0.0 1023.9 9.1 6.8
2014-Nov-25 07:00N 54°06' W 005°30'4 3.5 1024.0 8.9 6.5
2014-Nov-25 06:00N 54°06' W 005°36'7 7.0 1024.1 8.4 6.7
2014-Nov-25 05:00N 54°12' W 005°30'0 0.0 1024.4 8.4 6.6
2014-Nov-25 04:00N 54°12' W 005°30'4 3.5 1024.3 8.2 6.1
2014-Nov-25 03:00N 54°12' W 005°36'0 0.0 1024.1 8.0 6.6
2014-Nov-25 02:00N 54°12' W 005°36'0 0.0 1024.5 7.8 6.8
2014-Nov-25 01:00N 54°12' W 005°36'0 0.0 1024.9 8.3 6.9
2014-Nov-25 00:00N 54°12' W 005°36'0 0.0 1025.0 8.9 6.8
2014-Nov-24 23:00N 54°12' W 005°36'7 7.0 1025.2 8.4 7.0
2014-Nov-24 22:00N 54°06' W 005°30'7 7.0 1025.5 8.3 6.9
2014-Nov-24 21:00N 54°00' W 005°24'1312.5 1025.4 10.0 6.2
2014-Nov-24 20:00N 53°48' W 005°18'6 6.0 1025.9 10.7 5.7
2014-Nov-24 19:00N 53°42' W 005°18'0 0.0 1025.9 10.9 5.5
2014-Nov-24 18:00N 53°42' W 005°18'7 7.0 1025.5 10.8 5.2
2014-Nov-24 17:00N 53°48' W 005°12'0 0.0 1025.4 10.9 4.7
2014-Nov-24 16:00N 53°48' W 005°12'4 3.5 1025.4 11.1 4.4
2014-Nov-24 15:00N 53°48' W 005°18'4 3.5 1024.9 10.5 4.2
2014-Nov-24 14:00N 53°48' W 005°12'0 0.0 1025.3 10.2 3.4
2014-Nov-24 13:00N 53°48' W 005°12'4 3.5 1025.4 10.2 3.9
2014-Nov-24 12:00N 53°48' W 005°06'6 6.0 1024.9 10.0 3.3
2014-Nov-24 11:00N 53°54' W 005°06'0 0.0 1025.1 9.7 3.8
2014-Nov-24 10:00N 53°54' W 005°06'4 3.5 1024.9 9.3 3.9
2014-Nov-24 09:00N 53°54' W 005°00'0 0.0 1024.8 9.3 4.1
2014-Nov-24 08:00N 53°54' W 005°00'4 3.5 1023.9 9.1 2.6
2014-Nov-24 07:00N 53°54' W 005°06'0 0.0 1024.1 9.3 2.8
2014-Nov-24 06:00N 53°54' W 005°06'0 0.0 1023.7 8.9 4.1
2014-Nov-24 05:00N 53°54' W 005°06'7 7.0 1023.1 8.5 4.3
2014-Nov-24 04:00N 54°00' W 005°12'6 6.0 1022.9 8.8 5.3
2014-Nov-24 03:00N 54°06' W 005°12'0 0.0 1022.6 8.5 5.2
2014-Nov-24 02:00N 54°06' W 005°12'6 6.0 1022.2 9.0 4.2
2014-Nov-24 01:00N 54°12' W 005°12'0 0.0 1021.6 9.2 3.7
2014-Nov-24 00:00N 54°12' W 005°12'7 6.9 1021.4 9.0 4.4
2014-Nov-23 23:00N 54°18' W 005°18'6 6.0 1021.0 8.3 4.3
2014-Nov-23 22:00N 54°24' W 005°18'0 0.0 1020.7 7.5 4.1
2014-Nov-23 21:00N 54°24' W 005°18'7 6.9 1020.4 7.2 3.8
2014-Nov-23 20:00N 54°30' W 005°24'6 6.0 1020.1 7.2 4.2
2014-Nov-23 19:00N 54°36' W 005°24'7 6.9 1019.7 7.1 4.1
2014-Nov-23 18:00N 54°42' W 005°30'1010.4 1019.6 8.2 4.2
2014-Nov-23 17:00N 54°42' W 005°48'7 2.3 1019.7 8.2 4.4
2014-Nov-23 14:00N 54°36' W 005°54'0 0.0 1019.0 7.7 2.6
2014-Nov-23 13:00N 54°36' W 005°54'0 0.0 1018.9 7.6 2.2
2014-Nov-23 12:00N 54°36' W 005°54'9 4.6 1019.4 7.7 2.7
2014-Nov-23 10:00N 54°42' W 005°42'   1019.2 6.4 3.0
2014-Nov-20 23:00N 54°36' W 005°54'0 0.0 1023.1 9.8 7.5
2014-Nov-20 22:00N 54°36' W 005°54'0 0.0 1023.5 10.0 8.0
2014-Nov-20 21:00N 54°36' W 005°54'0 0.0 1023.7 9.8 8.0
2014-Nov-20 20:00N 54°36' W 005°54'0 0.0 1024.0 9.8 8.1
2014-Nov-20 19:00N 54°36' W 005°54'0 0.0 1024.0 10.1 8.4
2014-Nov-20 18:00N 54°36' W 005°54'0 0.0 1024.1 10.3 8.4
2014-Nov-20 17:00N 54°36' W 005°54'0 0.0 1024.0 10.6 8.6
2014-Nov-20 16:00N 54°36' W 005°54'0 0.0 1023.8 11.1 8.7
2014-Nov-20 15:00N 54°36' W 005°54'0 0.0 1023.9 11.0 9.2
2014-Nov-20 14:00N 54°36' W 005°54'0 0.0 1023.9 11.3 9.5
2014-Nov-20 12:00N 54°36' W 005°54'0 0.0 1024.3 11.9 9.6
2014-Nov-20 11:00N 54°36' W 005°54'0 0.0 1024.4 11.5 9.6
2014-Nov-20 10:00N 54°36' W 005°54'0 0.0 1024.1 11.2 9.3
2014-Nov-20 09:00N 54°36' W 005°54'0 0.0 1024.0 10.3 8.9
2014-Nov-20 08:00N 54°36' W 005°54'0 0.0 1023.5 10.5 9.2
2014-Nov-20 06:00N 54°36' W 005°54'0 0.0 1022.9 10.4 9.0
2014-Nov-20 05:00N 54°36' W 005°54'0 0.0 1022.7 10.7 8.6
2014-Nov-20 04:00N 54°36' W 005°54'0 0.0 1022.7 10.4 8.8
2014-Nov-20 03:00N 54°36' W 005°54'0 0.0 1022.7 9.9 8.6
2014-Nov-20 02:00N 54°36' W 005°54'0 0.0 1022.5 10.0 8.6
2014-Nov-20 01:00N 54°36' W 005°54'0 0.0 1022.1 10.6 8.3
2014-Nov-19 23:00N 54°36' W 005°54'0 0.0 1021.7 10.9 7.9
2014-Nov-19 22:00N 54°36' W 005°54'0 0.0 1021.4 10.7 7.8
2014-Nov-19 21:00N 54°36' W 005°54'0 0.0 1020.9 10.7 7.9
2014-Nov-19 20:00N 54°36' W 005°54'0 0.0 1020.3 10.2 7.7
2014-Nov-19 15:00N 54°36' W 005°54'0 0.0 1018.0 11.3 8.0
2014-Nov-19 14:00N 54°36' W 005°54'0 0.0 1017.7 11.3 7.4
2014-Nov-19 13:00N 54°36' W 005°54'0 0.0 1017.4 11.2 6.8
2014-Nov-19 12:00N 54°36' W 005°54'0 0.0 1017.1 11.6 7.1
2014-Nov-17 16:00N 54°36' W 005°54'0 0.0 1007.4 11.5 8.7
2014-Nov-17 14:00N 54°36' W 005°54'0 0.0 1007.1 11.8 8.2
2014-Nov-17 12:00N 54°36' W 005°54'0 0.0 1007.2 11.1 7.7
2014-Nov-17 11:00N 54°36' W 005°54'0 0.0 1007.0 11.0 7.7
2014-Nov-17 10:00N 54°36' W 005°54'0 0.0 1006.8 10.7 8.1
2014-Nov-17 08:00N 54°36' W 005°54'0 0.0 1006.5 10.6 8.0
2014-Nov-17 07:00N 54°36' W 005°54'0 0.0 1006.1 10.4 8.1
2014-Nov-17 06:00N 54°36' W 005°54'0 0.0 1006.0 10.4 8.1
2014-Nov-17 05:00N 54°36' W 005°54'0 0.0 1006.0 9.4 7.2
2014-Nov-17 04:00N 54°36' W 005°54'0 0.0 1006.1 9.7 6.6
2014-Nov-17 03:00N 54°36' W 005°54'0 0.0 1006.0 10.0 6.2
2014-Nov-17 02:00N 54°36' W 005°54'0 0.0 1006.0 9.9 6.5
2014-Nov-17 01:00N 54°36' W 005°54'0 0.0 1006.0 10.2 6.7
2014-Nov-17 00:00N 54°36' W 005°54'0 0.0 1006.0 9.1 6.5
2014-Nov-16 21:00N 54°36' W 005°54'0 0.0 1006.6 8.4 5.5
2014-Nov-16 20:00N 54°36' W 005°54'0 0.0 1006.4 8.7 5.7
2014-Nov-16 19:00N 54°36' W 005°54'   1006.4 9.3 6.0
Track history (hours):
 
Tides and Currents Weather Stations Pressure Air Temp Water Temp Dewpoint Dewpoint Depression Visibility Wind Speed Wind Dir Waves Ship Positions

Callsign AMOUK29 (name unknown)

Last reported at 2014-Nov-26 19:00 UTC. Time now 2014-Nov-28 05:42 UTC.
Position N 54°36' W 005°54'.

Barometer 1010.8 mb
Air temperature 7.7 ° C
Dewpoint 6.2 ° C

Date/timePositionNaut miles runAvg speedWind from/ knotsBaromVisibWave heightAir tempDewpointWater temp
2014-Nov-26 19:00N 54°36' W 005°54'0 0.0 1010.8 7.7 6.2
2014-Nov-26 16:00N 54°36' W 005°54'0 0.0 1011.7 9.3 6.0
2014-Nov-26 15:00N 54°36' W 005°54'0 0.0 1012.1 9.5 6.4
2014-Nov-26 14:00N 54°36' W 005°54'0 0.0 1012.8 8.9 6.0
2014-Nov-26 13:00N 54°36' W 005°54'0 0.0 1013.5 8.5 5.6
2014-Nov-26 11:00N 54°36' W 005°54'0 0.0 1015.2 7.2 5.4
2014-Nov-26 10:00N 54°36' W 005°54'0 0.0 1015.4 6.0 4.8
2014-Nov-26 09:00N 54°36' W 005°54'0 0.0 1015.8 5.7 4.4
2014-Nov-26 08:00N 54°36' W 005°54'0 0.0 1016.1 4.6 3.4
2014-Nov-26 03:00N 54°36' W 005°54'0 0.0 1017.2 6.8 4.5
2014-Nov-26 02:00N 54°36' W 005°54'0 0.0 1017.7 7.9 4.3
2014-Nov-26 01:00N 54°36' W 005°54'0 0.0 1018.4 8.3 4.8
2014-Nov-25 23:00N 54°36' W 005°54'0 0.0 1019.8 8.5 5.8
2014-Nov-25 22:00N 54°36' W 005°54'0 0.0 1019.8 8.3 6.4
2014-Nov-25 20:00N 54°36' W 005°54'0 0.0 1020.4 8.6 7.5
2014-Nov-25 16:00N 54°36' W 005°54'7 6.9 1020.7 8.9 7.1
2014-Nov-25 15:00N 54°42' W 005°48'1010.4 1020.9 8.4 6.7
2014-Nov-25 14:00N 54°42' W 005°30'7 6.9 1021.2 9.2 7.1
2014-Nov-25 13:00N 54°36' W 005°24'1212.5 1021.8 9.5 7.5
2014-Nov-25 12:00N 54°24' W 005°18'1312.5 1022.4 9.7 7.6
2014-Nov-25 11:00N 54°12' W 005°24'6 6.0 1023.1 9.8 7.3
2014-Nov-25 10:00N 54°06' W 005°24'4 3.5 1023.5 9.7 7.3
2014-Nov-25 09:00N 54°06' W 005°30'0 0.0 1023.9 9.4 7.1
2014-Nov-25 08:00N 54°06' W 005°30'0 0.0 1023.9 9.1 6.8
2014-Nov-25 07:00N 54°06' W 005°30'4 3.5 1024.0 8.9 6.5
2014-Nov-25 06:00N 54°06' W 005°36'7 7.0 1024.1 8.4 6.7
2014-Nov-25 05:00N 54°12' W 005°30'0 0.0 1024.4 8.4 6.6
2014-Nov-25 04:00N 54°12' W 005°30'4 3.5 1024.3 8.2 6.1
2014-Nov-25 03:00N 54°12' W 005°36'0 0.0 1024.1 8.0 6.6
2014-Nov-25 02:00N 54°12' W 005°36'0 0.0 1024.5 7.8 6.8
2014-Nov-25 01:00N 54°12' W 005°36'0 0.0 1024.9 8.3 6.9
2014-Nov-25 00:00N 54°12' W 005°36'0 0.0 1025.0 8.9 6.8
2014-Nov-24 23:00N 54°12' W 005°36'7 7.0 1025.2 8.4 7.0
2014-Nov-24 22:00N 54°06' W 005°30'7 7.0 1025.5 8.3 6.9
2014-Nov-24 21:00N 54°00' W 005°24'1312.5 1025.4 10.0 6.2
2014-Nov-24 20:00N 53°48' W 005°18'6 6.0 1025.9 10.7 5.7
2014-Nov-24 19:00N 53°42' W 005°18'0 0.0 1025.9 10.9 5.5
2014-Nov-24 18:00N 53°42' W 005°18'7 7.0 1025.5 10.8 5.2
2014-Nov-24 17:00N 53°48' W 005°12'0 0.0 1025.4 10.9 4.7
2014-Nov-24 16:00N 53°48' W 005°12'4 3.5 1025.4 11.1 4.4
2014-Nov-24 15:00N 53°48' W 005°18'4 3.5 1024.9 10.5 4.2
2014-Nov-24 14:00N 53°48' W 005°12'0 0.0 1025.3 10.2 3.4
2014-Nov-24 13:00N 53°48' W 005°12'4 3.5 1025.4 10.2 3.9
2014-Nov-24 12:00N 53°48' W 005°06'6 6.0 1024.9 10.0 3.3
2014-Nov-24 11:00N 53°54' W 005°06'0 0.0 1025.1 9.7 3.8
2014-Nov-24 10:00N 53°54' W 005°06'4 3.5 1024.9 9.3 3.9
2014-Nov-24 09:00N 53°54' W 005°00'0 0.0 1024.8 9.3 4.1
2014-Nov-24 08:00N 53°54' W 005°00'4 3.5 1023.9 9.1 2.6
2014-Nov-24 07:00N 53°54' W 005°06'0 0.0 1024.1 9.3 2.8
2014-Nov-24 06:00N 53°54' W 005°06'0 0.0 1023.7 8.9 4.1
2014-Nov-24 05:00N 53°54' W 005°06'7 7.0 1023.1 8.5 4.3
2014-Nov-24 04:00N 54°00' W 005°12'6 6.0 1022.9 8.8 5.3
2014-Nov-24 03:00N 54°06' W 005°12'0 0.0 1022.6 8.5 5.2
2014-Nov-24 02:00N 54°06' W 005°12'6 6.0 1022.2 9.0 4.2
2014-Nov-24 01:00N 54°12' W 005°12'0 0.0 1021.6 9.2 3.7
2014-Nov-24 00:00N 54°12' W 005°12'7 6.9 1021.4 9.0 4.4
2014-Nov-23 23:00N 54°18' W 005°18'6 6.0 1021.0 8.3 4.3
2014-Nov-23 22:00N 54°24' W 005°18'0 0.0 1020.7 7.5 4.1
2014-Nov-23 21:00N 54°24' W 005°18'7 6.9 1020.4 7.2 3.8
2014-Nov-23 20:00N 54°30' W 005°24'6 6.0 1020.1 7.2 4.2
2014-Nov-23 19:00N 54°36' W 005°24'7 6.9 1019.7 7.1 4.1
2014-Nov-23 18:00N 54°42' W 005°30'1010.4 1019.6 8.2 4.2
2014-Nov-23 17:00N 54°42' W 005°48'7 2.3 1019.7 8.2 4.4
2014-Nov-23 14:00N 54°36' W 005°54'0 0.0 1019.0 7.7 2.6
2014-Nov-23 13:00N 54°36' W 005°54'0 0.0 1018.9 7.6 2.2
2014-Nov-23 12:00N 54°36' W 005°54'9 4.6 1019.4 7.7 2.7
2014-Nov-23 10:00N 54°42' W 005°42'   1019.2 6.4 3.0
2014-Nov-20 23:00N 54°36' W 005°54'0 0.0 1023.1 9.8 7.5
2014-Nov-20 22:00N 54°36' W 005°54'0 0.0 1023.5 10.0 8.0
2014-Nov-20 21:00N 54°36' W 005°54'0 0.0 1023.7 9.8 8.0
2014-Nov-20 20:00N 54°36' W 005°54'0 0.0 1024.0 9.8 8.1
2014-Nov-20 19:00N 54°36' W 005°54'0 0.0 1024.0 10.1 8.4
2014-Nov-20 18:00N 54°36' W 005°54'0 0.0 1024.1 10.3 8.4
2014-Nov-20 17:00N 54°36' W 005°54'0 0.0 1024.0 10.6 8.6
2014-Nov-20 16:00N 54°36' W 005°54'0 0.0 1023.8 11.1 8.7
2014-Nov-20 15:00N 54°36' W 005°54'0 0.0 1023.9 11.0 9.2
2014-Nov-20 14:00N 54°36' W 005°54'0 0.0 1023.9 11.3 9.5
2014-Nov-20 12:00N 54°36' W 005°54'0 0.0 1024.3 11.9 9.6
2014-Nov-20 11:00N 54°36' W 005°54'0 0.0 1024.4 11.5 9.6
2014-Nov-20 10:00N 54°36' W 005°54'0 0.0 1024.1 11.2 9.3
2014-Nov-20 09:00N 54°36' W 005°54'0 0.0 1024.0 10.3 8.9
2014-Nov-20 08:00N 54°36' W 005°54'0 0.0 1023.5 10.5 9.2
2014-Nov-20 06:00N 54°36' W 005°54'0 0.0 1022.9 10.4 9.0
2014-Nov-20 05:00N 54°36' W 005°54'0 0.0 1022.7 10.7 8.6
2014-Nov-20 04:00N 54°36' W 005°54'0 0.0 1022.7 10.4 8.8
2014-Nov-20 03:00N 54°36' W 005°54'0 0.0 1022.7 9.9 8.6
2014-Nov-20 02:00N 54°36' W 005°54'0 0.0 1022.5 10.0 8.6
2014-Nov-20 01:00N 54°36' W 005°54'0 0.0 1022.1 10.6 8.3
2014-Nov-19 23:00N 54°36' W 005°54'0 0.0 1021.7 10.9 7.9
2014-Nov-19 22:00N 54°36' W 005°54'0 0.0 1021.4 10.7 7.8
2014-Nov-19 21:00N 54°36' W 005°54'0 0.0 1020.9 10.7 7.9
2014-Nov-19 20:00N 54°36' W 005°54'0 0.0 1020.3 10.2 7.7
2014-Nov-19 15:00N 54°36' W 005°54'0 0.0 1018.0 11.3 8.0
2014-Nov-19 14:00N 54°36' W 005°54'0 0.0 1017.7 11.3 7.4
2014-Nov-19 13:00N 54°36' W 005°54'0 0.0 1017.4 11.2 6.8
2014-Nov-19 12:00N 54°36' W 005°54'0 0.0 1017.1 11.6 7.1
2014-Nov-17 16:00N 54°36' W 005°54'0 0.0 1007.4 11.5 8.7
2014-Nov-17 14:00N 54°36' W 005°54'0 0.0 1007.1 11.8 8.2
2014-Nov-17 12:00N 54°36' W 005°54'0 0.0 1007.2 11.1 7.7
2014-Nov-17 11:00N 54°36' W 005°54'0 0.0 1007.0 11.0 7.7
2014-Nov-17 10:00N 54°36' W 005°54'0 0.0 1006.8 10.7 8.1
2014-Nov-17 08:00N 54°36' W 005°54'0 0.0 1006.5 10.6 8.0
2014-Nov-17 07:00N 54°36' W 005°54'0 0.0 1006.1 10.4 8.1
2014-Nov-17 06:00N 54°36' W 005°54'0 0.0 1006.0 10.4 8.1
2014-Nov-17 05:00N 54°36' W 005°54'0 0.0 1006.0 9.4 7.2
2014-Nov-17 04:00N 54°36' W 005°54'0 0.0 1006.1 9.7 6.6
2014-Nov-17 03:00N 54°36' W 005°54'0 0.0 1006.0 10.0 6.2
2014-Nov-17 02:00N 54°36' W 005°54'0 0.0 1006.0 9.9 6.5
2014-Nov-17 01:00N 54°36' W 005°54'0 0.0 1006.0 10.2 6.7
2014-Nov-17 00:00N 54°36' W 005°54'0 0.0 1006.0 9.1 6.5
2014-Nov-16 21:00N 54°36' W 005°54'0 0.0 1006.6 8.4 5.5
2014-Nov-16 20:00N 54°36' W 005°54'0 0.0 1006.4 8.7 5.7
2014-Nov-16 19:00N 54°36' W 005°54'   1006.4 9.3 6.0

Dump ship's entire track history